createdAt,value
2018-01-29T17:14:39.879Z,99.99
2018-01-29T17:15:39.845Z,99.99
2018-01-29T17:16:39.865Z,99.99
2018-01-29T17:17:40.246Z,99.99
2018-01-29T17:18:39.843Z,99.99
2018-01-29T17:19:39.850Z,99.99
2018-01-29T17:20:39.856Z,99.99
2018-01-29T17:21:39.862Z,99.99
2018-01-29T17:22:39.963Z,99.99
2018-01-29T17:23:39.862Z,99.99
2018-01-29T17:24:39.872Z,99.99
2018-01-29T17:25:39.924Z,99.99
2018-01-29T17:26:39.943Z,99.99
2018-01-29T17:27:39.874Z,99.99
2018-01-29T17:28:39.911Z,99.99
2018-01-29T17:29:39.904Z,99.99
2018-01-29T17:30:40.059Z,99.99
2018-01-29T17:31:39.906Z,99.99
2018-01-29T17:32:39.879Z,99.99
2018-01-29T17:33:39.890Z,99.99
2018-01-29T17:34:39.921Z,99.99
2018-01-29T17:35:39.919Z,99.99
2018-01-29T17:36:39.869Z,99.99
2018-01-29T17:37:39.909Z,99.99
2018-01-29T17:38:39.925Z,99.99
2018-01-29T17:39:39.927Z,99.99
2018-01-29T17:40:39.888Z,99.99
2018-01-29T17:41:40.074Z,99.99
2018-01-29T17:43:39.911Z,99.99
2018-01-29T17:44:39.900Z,99.99
2018-01-29T17:45:40.003Z,99.99
2018-01-29T17:46:39.935Z,99.99
2018-01-29T17:47:39.888Z,99.99
2018-01-29T17:48:39.911Z,99.99
2018-01-29T17:49:39.921Z,99.99
2018-01-29T17:50:39.956Z,99.99
2018-01-29T17:51:39.956Z,99.99
2018-01-29T17:52:39.961Z,99.99
2018-01-29T17:53:39.919Z,99.99
2018-01-29T17:54:39.951Z,99.99
2018-01-29T17:55:39.944Z,99.99
2018-01-29T17:56:39.921Z,99.99
2018-01-29T17:57:39.914Z,99.99
2018-01-29T17:58:39.950Z,99.99
2018-01-29T17:59:39.948Z,99.99
2018-01-29T18:00:39.939Z,99.99
2018-01-29T18:01:39.912Z,99.99
2018-01-29T18:02:39.940Z,99.99
2018-01-29T18:03:39.985Z,99.99
2018-01-29T18:04:39.993Z,99.99
2018-01-29T18:05:39.944Z,99.99
2018-01-29T18:06:39.943Z,99.99
2018-01-29T18:07:39.985Z,99.99
2018-01-29T18:08:39.987Z,99.99
2018-01-29T18:09:40.656Z,99.99
2018-01-29T18:10:40.177Z,99.99
2018-01-29T18:13:13.126Z,99.99
2018-01-29T18:14:13.204Z,99.99
2018-01-29T18:15:12.899Z,99.99
2018-01-29T18:16:13.154Z,99.99
2018-01-29T18:17:12.889Z,99.99
2018-01-29T18:18:12.876Z,99.99
2018-01-29T18:19:12.988Z,99.99
2018-01-29T18:20:12.923Z,99.99
2018-01-29T18:21:12.956Z,99.99
2018-01-29T18:22:12.897Z,99.99
2018-01-29T18:23:12.884Z,99.99
2018-01-29T18:24:12.920Z,99.99
2018-01-29T18:25:12.889Z,99.99
2018-01-29T18:26:12.893Z,99.99
2018-01-29T18:27:12.931Z,99.99
2018-01-29T18:28:12.915Z,99.99
2018-01-29T18:29:12.942Z,99.99
2018-01-29T18:30:12.903Z,99.99
2018-01-29T18:31:12.920Z,99.99
2018-01-29T18:32:12.901Z,99.99
2018-01-29T18:33:12.919Z,99.99
2018-01-29T18:34:12.916Z,99.99
2018-01-29T18:35:12.953Z,99.99
2018-01-29T18:36:12.928Z,99.99
2018-01-29T18:37:12.947Z,99.99
2018-01-29T18:38:12.941Z,99.99
2018-01-29T18:39:12.954Z,99.99
2018-01-29T18:40:12.925Z,99.99
2018-01-29T18:41:12.935Z,99.99
2018-01-29T18:42:12.955Z,99.99
2018-01-29T18:43:12.945Z,99.99
2018-01-29T18:44:12.912Z,99.99
2018-01-29T18:45:12.950Z,99.99
2018-01-29T18:46:12.973Z,99.99
2018-01-29T18:47:12.959Z,99.99
2018-01-29T18:48:12.995Z,99.79
2018-01-29T18:49:12.934Z,99.69
2018-01-29T18:50:13.533Z,99.99
2018-01-29T18:51:12.983Z,99.69
2018-01-29T18:52:12.942Z,99.89
2018-01-29T18:53:13.053Z,99.22
2018-01-29T18:54:12.997Z,99.51
2018-01-29T18:55:12.959Z,98.94
2018-01-29T18:56:12.975Z,98.94
2018-01-29T18:57:12.961Z,99.22
2018-01-29T18:58:13.009Z,98.46
2018-01-29T18:59:12.950Z,98.65
2018-01-29T19:00:12.940Z,98.36
2018-01-29T19:01:12.931Z,98.18
2018-01-29T19:02:12.945Z,98.18
2018-01-29T19:03:12.942Z,98.50
2018-01-29T19:04:12.997Z,98.41
2018-01-29T19:05:12.952Z,99.17
2018-01-29T19:06:13.020Z,99.55
2018-01-29T19:07:12.953Z,99.65
2018-01-29T19:08:12.951Z,98.98
2018-01-29T19:09:12.970Z,99.55
2018-01-29T19:10:12.967Z,99.79
2018-01-29T19:11:12.972Z,99.99
2018-01-29T19:12:13.000Z,99.46
2018-01-29T19:13:12.959Z,99.08
2018-01-29T19:14:12.991Z,99.36
2018-01-29T19:15:12.982Z,98.88
2018-01-29T19:16:12.956Z,98.94
2018-01-29T19:17:12.985Z,99.08
2018-01-29T19:18:13.018Z,99.36
2018-01-29T19:19:13.008Z,99.32
2018-01-29T19:20:13.017Z,99.41
2018-01-29T19:21:13.002Z,99.65
2018-01-29T19:22:12.962Z,99.36
2018-01-29T19:23:12.965Z,98.79
2018-01-29T19:24:12.989Z,98.60
2018-01-29T19:25:13.002Z,98.88
2018-01-29T19:26:12.987Z,99.17
2018-01-29T19:27:12.988Z,99.27
2018-01-29T19:28:13.005Z,99.55
2018-01-29T19:29:13.016Z,99.65
2018-01-29T19:30:13.041Z,99.36
2018-01-29T19:31:12.974Z,98.88
2018-01-29T19:32:12.995Z,98.13
2018-01-29T19:33:12.966Z,98.32
2018-01-29T19:34:12.996Z,97.84
2018-01-29T19:35:12.982Z,98.22
2018-01-29T19:36:13.021Z,98.13
2018-01-29T19:37:13.008Z,96.31
2018-01-29T19:38:13.034Z,95.75
2018-01-29T19:39:12.991Z,95.27
2018-01-29T19:40:12.978Z,96.12
2018-01-29T19:41:13.001Z,96.41
2018-01-29T19:42:12.987Z,95.65
2018-01-29T19:43:13.052Z,95.08
2018-01-29T19:44:13.031Z,95.36
2018-01-29T19:45:12.998Z,94.46
2018-01-29T19:46:13.023Z,94.65
2018-01-29T19:47:13.022Z,94.65
2018-01-29T19:48:13.047Z,93.98
2018-01-29T19:49:13.037Z,93.51
2018-01-29T19:50:13.067Z,94.56
2018-01-29T19:51:13.080Z,94.56
2018-01-29T19:52:13.018Z,94.74
2018-01-29T19:53:13.039Z,94.46
2018-01-29T19:54:13.072Z,93.89
2018-01-29T19:55:13.046Z,93.79
2018-01-29T19:56:13.026Z,93.70
2018-01-29T19:57:13.049Z,93.60
2018-01-29T19:58:13.030Z,93.89
2018-01-29T19:59:13.001Z,93.04
2018-01-29T20:00:13.013Z,93.79
2018-01-29T20:01:13.198Z,94.37
2018-01-29T20:02:13.023Z,94.18
2018-01-29T20:03:13.012Z,94.18
2018-01-29T20:04:13.048Z,93.98
2018-01-29T20:05:13.004Z,94.27
2018-01-29T20:06:13.017Z,94.56
2018-01-29T20:07:13.116Z,94.08
2018-01-29T20:08:13.023Z,93.70
2018-01-29T20:09:13.054Z,94.37
2018-01-29T20:10:13.020Z,94.46
2018-01-29T20:11:13.022Z,94.56
2018-01-29T20:12:13.016Z,94.56
2018-01-29T20:13:13.024Z,94.56
2018-01-29T20:14:13.083Z,95.32
2018-01-29T20:15:13.556Z,95.22
2018-01-29T20:16:13.016Z,95.41
2018-01-29T20:17:13.014Z,94.84
2018-01-29T20:18:13.074Z,95.22
2018-01-29T20:19:13.055Z,95.03
2018-01-29T20:20:13.047Z,94.93
2018-01-29T20:21:13.055Z,94.37
2018-01-29T20:22:13.048Z,93.89
2018-01-29T20:23:13.048Z,94.27
2018-01-29T20:24:13.061Z,94.65
2018-01-29T20:25:13.029Z,95.08
2018-01-29T20:26:13.049Z,94.70
2018-01-29T20:27:13.059Z,94.27
2018-01-29T20:28:13.088Z,95.08
2018-01-29T20:29:13.081Z,94.22
2018-01-29T20:30:13.108Z,94.51
2018-01-29T20:31:13.037Z,94.42
2018-01-29T20:32:13.055Z,94.13
2018-01-29T20:33:13.036Z,93.27
2018-01-29T20:34:13.039Z,93.08
2018-01-29T20:35:13.079Z,93.65
2018-01-29T20:36:13.054Z,93.27
2018-01-29T20:37:13.050Z,93.18
2018-01-29T20:38:13.046Z,93.37
2018-01-29T20:39:13.059Z,93.46
2018-01-29T20:40:13.055Z,93.08
2018-01-29T20:41:13.181Z,92.99
2018-01-29T20:42:13.044Z,92.75
2018-01-29T20:43:13.098Z,93.13
2018-01-29T20:44:13.045Z,94.08
2018-01-29T20:45:13.096Z,93.18
2018-01-29T20:46:13.061Z,93.41
2018-01-29T20:47:13.112Z,92.75
2018-01-29T20:48:13.132Z,93.08
2018-01-29T20:49:13.086Z,93.18
2018-01-29T20:50:13.081Z,93.08
2018-01-29T20:51:13.121Z,93.04
2018-01-29T20:52:13.044Z,92.84
2018-01-29T20:53:13.075Z,93.04
2018-01-29T20:54:13.090Z,92.89
2018-01-29T20:55:13.094Z,93.13
2018-01-29T20:56:13.089Z,92.94
2018-01-29T20:57:13.084Z,92.84
2018-01-29T20:58:13.105Z,93.04
2018-01-29T20:59:13.069Z,93.04
2018-01-29T21:00:13.065Z,93.13
2018-01-29T21:01:13.087Z,93.13
2018-01-29T21:02:13.085Z,92.94
2018-01-29T21:03:13.083Z,92.84
2018-01-29T21:04:13.061Z,92.75
2018-01-29T21:05:13.123Z,91.99
2018-01-29T21:06:13.076Z,92.94
2018-01-29T21:07:13.084Z,92.65
2018-01-29T21:08:13.116Z,92.94
2018-01-29T21:09:13.065Z,93.23
2018-01-29T21:10:13.090Z,93.23
2018-01-29T21:11:13.069Z,93.04
2018-01-29T21:12:13.133Z,93.51
2018-01-29T21:13:13.118Z,93.32
2018-01-29T21:14:13.109Z,93.41
2018-01-29T21:15:13.102Z,92.94
2018-01-29T21:16:13.118Z,93.13
2018-01-29T21:17:13.155Z,92.75
2018-01-29T21:18:13.087Z,93.41
2018-01-29T21:19:13.068Z,92.65
2018-01-29T21:20:13.072Z,93.41
2018-01-29T21:21:13.081Z,93.04
2018-01-29T21:22:13.077Z,93.23
2018-01-29T21:23:13.131Z,92.70
2018-01-29T21:24:13.174Z,93.27
2018-01-29T21:25:13.110Z,92.70
2018-01-29T21:26:13.095Z,93.27
2018-01-29T21:27:13.075Z,93.27
2018-01-29T21:28:13.160Z,93.37
2018-01-29T21:29:13.088Z,92.94
2018-01-29T21:30:13.125Z,92.61
2018-01-29T21:31:13.089Z,93.04
2018-01-29T21:32:13.128Z,91.89
2018-01-29T21:33:13.097Z,92.27
2018-01-29T21:34:13.090Z,92.08
2018-01-29T21:35:13.084Z,91.42
2018-01-29T21:36:13.109Z,91.32
2018-01-29T21:37:13.102Z,92.46
2018-01-29T21:38:13.103Z,91.80
2018-01-29T21:39:13.107Z,92.18
2018-01-29T21:40:13.090Z,91.99
2018-01-29T21:41:13.126Z,91.99
2018-01-29T21:42:13.108Z,91.03
2018-01-29T21:43:13.091Z,90.52
2018-01-29T21:44:13.129Z,91.75
2018-01-29T21:45:13.113Z,91.85
2018-01-29T21:46:13.088Z,91.56
2018-01-29T21:47:13.103Z,91.37
2018-01-29T21:48:13.573Z,91.75
2018-01-29T21:49:13.117Z,91.18
2018-01-29T21:50:13.097Z,91.56
2018-01-29T21:51:13.162Z,91.66
2018-01-29T21:52:13.152Z,91.47
2018-01-29T21:53:13.107Z,91.47
2018-01-29T21:54:13.148Z,91.08
2018-01-29T21:55:13.145Z,91.18
2018-01-29T21:56:13.125Z,91.47
2018-01-29T21:57:13.097Z,90.99
2018-01-29T21:58:13.124Z,91.08
2018-01-29T21:59:13.141Z,91.28
2018-01-29T22:00:13.160Z,91.47
2018-01-29T22:01:13.117Z,91.08
2018-01-29T22:02:13.198Z,91.08
2018-01-29T22:03:13.410Z,91.37
2018-01-29T22:04:13.123Z,91.18
2018-01-29T22:05:13.129Z,91.28
2018-01-29T22:06:13.112Z,90.89
2018-01-29T22:07:13.121Z,90.42
2018-01-29T22:08:13.177Z,90.70
2018-01-29T22:09:13.127Z,91.47
2018-01-29T22:10:13.113Z,91.08
2018-01-29T22:11:13.142Z,91.75
2018-01-29T22:12:13.145Z,91.56
2018-01-29T22:13:13.147Z,91.37
2018-01-29T22:14:13.173Z,91.47
2018-01-29T22:15:13.210Z,91.66
2018-01-29T22:16:13.111Z,91.28
2018-01-29T22:17:13.143Z,91.85
2018-01-29T22:18:13.113Z,91.75
2018-01-29T22:19:13.106Z,91.37
2018-01-29T22:20:13.108Z,91.18
2018-01-29T22:21:13.117Z,91.37
2018-01-29T22:22:13.104Z,91.56
2018-01-29T22:23:13.129Z,91.75
2018-01-29T22:24:13.137Z,91.85
2018-01-29T22:25:13.162Z,91.37
2018-01-29T22:26:13.145Z,91.28
2018-01-29T22:27:13.152Z,90.99
2018-01-29T22:28:13.164Z,91.18
2018-01-29T22:29:13.141Z,91.08
2018-01-29T22:30:13.162Z,91.28
2018-01-29T22:31:13.160Z,91.37
2018-01-29T22:32:13.137Z,91.37
2018-01-29T22:33:13.121Z,91.47
2018-01-29T22:34:13.189Z,90.61
2018-01-29T22:35:13.163Z,91.66
2018-01-29T22:36:13.134Z,91.18
2018-01-29T22:37:13.149Z,91.56
2018-01-29T22:38:13.116Z,91.37
2018-01-29T22:39:13.166Z,90.52
2018-01-29T22:40:13.121Z,91.56
2018-01-29T22:41:13.165Z,91.08
2018-01-29T22:42:14.088Z,90.61
2018-01-29T22:43:13.168Z,91.75
2018-01-29T22:44:13.133Z,91.56
2018-01-29T22:45:13.132Z,91.18
2018-01-29T22:46:13.141Z,90.99
2018-01-29T22:47:13.128Z,91.18
2018-01-29T22:48:13.117Z,91.18
2018-01-29T22:49:13.125Z,91.94
2018-01-29T22:50:13.112Z,91.37
2018-01-29T22:51:13.134Z,91.47
2018-01-29T22:52:13.120Z,91.37
2018-01-29T22:53:13.159Z,91.18
2018-01-29T22:54:13.159Z,91.08
2018-01-29T22:55:13.144Z,91.75
2018-01-29T22:56:13.134Z,90.99
2018-01-29T22:57:13.185Z,91.18
2018-01-29T22:58:13.173Z,91.28
2018-01-29T22:59:13.153Z,91.37
2018-01-29T23:00:14.087Z,91.37
2018-01-29T23:01:13.129Z,91.75
2018-01-29T23:02:13.120Z,91.94
2018-01-29T23:03:13.143Z,91.28
2018-01-29T23:04:13.134Z,90.99
2018-01-29T23:05:13.192Z,91.18
2018-01-29T23:06:13.161Z,91.18
2018-01-29T23:07:13.126Z,90.52
2018-01-29T23:08:13.128Z,91.28
2018-01-29T23:09:13.157Z,90.89
2018-01-29T23:10:13.131Z,91.08
2018-01-29T23:11:13.133Z,91.18
2018-01-29T23:12:13.142Z,91.18
2018-01-29T23:13:13.178Z,90.80
2018-01-29T23:14:13.197Z,90.70
2018-01-29T23:15:13.173Z,91.37
2018-01-29T23:16:13.147Z,91.08
2018-01-29T23:17:13.157Z,90.61
2018-01-29T23:18:13.159Z,90.80
2018-01-29T23:19:13.129Z,91.08
2018-01-29T23:20:13.150Z,91.56
2018-01-29T23:21:13.148Z,91.56
2018-01-29T23:22:13.154Z,90.99
2018-01-29T23:23:13.186Z,90.80
2018-01-29T23:24:13.167Z,90.89
2018-01-29T23:25:13.197Z,90.70
2018-01-29T23:26:13.154Z,91.75
2018-01-29T23:27:13.172Z,91.18
2018-01-29T23:28:13.202Z,91.18
2018-01-29T23:29:13.176Z,90.52
2018-01-29T23:30:13.159Z,91.18
2018-01-29T23:31:13.146Z,90.99
2018-01-29T23:32:13.174Z,91.18
2018-01-29T23:33:13.171Z,91.56
2018-01-29T23:34:13.171Z,91.47
2018-01-29T23:35:13.167Z,90.99
2018-01-29T23:36:13.201Z,90.61
2018-01-29T23:37:13.186Z,91.56
2018-01-29T23:38:13.144Z,91.47
2018-01-29T23:39:13.150Z,90.94
2018-01-29T23:40:13.175Z,90.66
2018-01-29T23:41:13.188Z,90.94
2018-01-29T23:42:13.165Z,91.61
2018-01-29T23:43:13.175Z,91.71
2018-01-29T23:44:13.179Z,90.94
2018-01-29T23:45:13.151Z,91.18
2018-01-29T23:46:13.153Z,90.85
2018-01-29T23:47:13.218Z,91.04
2018-01-29T23:48:13.201Z,91.04
2018-01-29T23:49:13.188Z,90.37
2018-01-29T23:50:13.151Z,90.28
2018-01-29T23:51:13.159Z,90.85
2018-01-29T23:52:13.166Z,90.09
2018-01-29T23:53:13.158Z,90.19
2018-01-29T23:54:13.170Z,90.33
2018-01-29T23:55:13.199Z,90.37
2018-01-29T23:56:13.165Z,89.90
2018-01-29T23:57:13.194Z,89.90
2018-01-29T23:58:13.167Z,89.71
2018-01-29T23:59:13.184Z,89.61
